Time;durP1;ratioP1;P1;durP2;ratioP2;P2;SDS_P1;SDS_P2;PMS_P1;PMS_P2;Temp;Humidity;BMP_temperature;BMP_pressure;BME280_temperature;BME280_humidity;BME280_pressure;Samples;Min_cycle;Max_cycle;Signal;HPM_P1;HPM_P2
2021/11/16 06:27:06;;;;;;;8.25;7.45;;;;;;;;;;4999637;28;80275;-32
2021/11/16 06:32:05;;;;;;;8.15;7.35;;;;;;;;;;4930829;28;80547;-32
2021/11/16 06:34:32;;;;;;;9.98;7.95;;;;;;;;;;4938077;28;80390;-32
2021/11/16 06:36:58;;;;;;;9.48;7.82;;;;;;;;;;4936865;28;81738;-33
2021/11/16 06:39:25;;;;;;;7.57;6.88;;;;;;;;;;4935700;28;81994;-27
2021/11/16 06:41:51;;;;;;;9.30;8.27;;;;;;;;;;4936657;28;82480;-28
2021/11/16 06:44:21;;;;;;;8.57;7.30;;;;;;;;;;4940475;28;81519;-30
2021/11/16 06:46:49;;;;;;;8.13;7.32;;;;;;;;;;4935611;28;81855;-31
2021/11/16 06:49:16;;;;;;;9.15;8.23;;;;;;;;;;4940016;28;82420;-31
2021/11/16 06:51:44;;;;;;;9.18;7.85;;;;;;;;;;4941516;28;81719;-31
2021/11/16 06:54:12;;;;;;;7.22;6.53;;;;;;;;;;4941125;28;82457;-34
2021/11/16 06:56:39;;;;;;;8.38;7.50;;;;;;;;;;4940839;28;81839;-31
2021/11/16 07:01:21;;;;;;;15.68;13.68;;;;;;;;;;5118972;27;80050;-47
2021/11/16 07:03:49;;;;;;;23.27;16.40;;;;;;;;;;5090469;27;83095;-47
2021/11/16 07:06:16;;;;;;;21.10;15.85;;;;;;;;;;5087620;27;84452;-44
2021/11/16 07:08:43;;;;;;;21.08;17.10;;;;;;;;;;5090665;27;83113;-45
2021/11/16 07:11:18;;;;;;;22.73;17.80;;;;;;;;;;5089025;27;85328;-45
2021/11/16 07:14:02;;;;;;;18.85;15.25;;;;;;;;;;5087281;27;84335;-46
2021/11/16 07:16:34;;;;;;;21.23;17.38;;;;;;;;;;5094020;27;83647;-47
2021/11/16 07:19:02;;;;;;;25.52;17.92;;;;;;;;;;5091082;27;85566;-44
2021/11/16 07:21:41;;;;;;;23.60;16.35;;;;;;;;;;5087070;27;84421;-45
2021/11/16 07:24:12;;;;;;;26.58;18.77;;;;;;;;;;5076956;27;84968;-45
2021/11/16 07:26:42;;;;;;;22.85;15.98;;;;;;;;;;5082019;27;84369;-44
2021/11/16 07:29:11;;;;;;;20.67;16.90;;;;;;;;;;5088422;27;83199;-45
2021/11/16 07:31:41;;;;;;;21.30;15.18;;;;;;;;;;5082288;27;85143;-44
2021/11/16 07:34:18;;;;;;;20.23;14.43;;;;;;;;;;5078370;27;83528;-46
2021/11/16 07:36:54;;;;;;;21.77;14.52;;;;;;;;;;5083833;27;83175;-46
2021/11/16 07:39:22;;;;;;;19.15;14.25;;;;;;;;;;5082225;27;85195;-45
2021/11/16 07:41:49;;;;;;;22.70;15.15;;;;;;;;;;5087363;27;84652;-42
2021/11/16 07:44:17;;;;;;;22.90;14.63;;;;;;;;;;5083981;27;83221;-43
2021/11/16 07:46:53;;;;;;;25.60;15.55;;;;;;;;;;5079430;27;83593;-55
2021/11/16 07:49:20;;;;;;;20.70;15.55;;;;;;;;;;5081238;27;84316;-42
2021/11/16 07:51:47;;;;;;;20.58;13.55;;;;;;;;;;5080280;27;85116;-44
2021/11/16 07:54:19;;;;;;;23.02;14.50;;;;;;;;;;5080071;27;84392;-42
2021/11/16 07:56:46;;;;;;;22.05;14.80;;;;;;;;;;5082359;27;83347;-41
2021/11/16 07:59:14;;;;;;;19.85;14.00;;;;;;;;;;5077741;27;85308;-42
2021/11/16 08:07:28;;;;;;;21.48;13.25;;;;;;;;;;5042969;27;86297;-42
2021/11/16 08:09:57;;;;;;;22.00;14.40;;;;;;;;;;5076173;27;83621;-46
2021/11/16 08:12:28;;;;;;;23.67;15.15;;;;;;;;;;5065703;27;85025;-42
2021/11/16 08:15:00;;;;;;;23.17;13.80;;;;;;;;;;5063162;27;84236;-43
2021/11/16 08:17:27;;;;;;;19.05;13.27;;;;;;;;;;5066577;27;83054;-42
2021/11/16 08:19:56;;;;;;;24.42;14.90;;;;;;;;;;5063559;27;85314;-42
2021/11/16 08:22:23;;;;;;;21.00;14.95;;;;;;;;;;5017573;27;84540;-42
2021/11/16 08:24:50;;;;;;;22.45;14.32;;;;;;;;;;5044647;27;83392;-42
2021/11/16 08:27:19;;;;;;;21.15;13.68;;;;;;;;;;5043723;27;85031;-42
2021/11/16 08:29:59;;;;;;;24.55;14.80;;;;;;;;;;5044605;27;84160;-43
2021/11/16 08:32:34;;;;;;;19.80;14.23;;;;;;;;;;5038345;27;85035;-42
2021/11/16 08:35:01;;;;;;;26.63;15.15;;;;;;;;;;5043861;27;84367;-55
2021/11/16 08:37:31;;;;;;;22.02;13.82;;;;;;;;;;5042842;27;83289;-43
2021/11/16 08:39:59;;;;;;;18.80;13.65;;;;;;;;;;5040892;27;85264;-43
2021/11/16 08:42:27;;;;;;;22.25;16.08;;;;;;;;;;5044284;27;84246;-42
2021/11/16 08:44:59;;;;;;;22.90;15.32;;;;;;;;;;5045687;27;83261;-43
2021/11/16 08:47:28;;;;;;;26.98;16.75;;;;;;;;;;5047035;27;85113;-43
2021/11/16 08:49:55;;;;;;;19.17;14.20;;;;;;;;;;4981407;27;84324;-44
2021/11/16 08:52:25;;;;;;;21.33;15.38;;;;;;;;;;5057161;27;83179;-44
2021/11/16 08:54:57;;;;;;;20.58;14.90;;;;;;;;;;5054322;27;85312;-43
2021/11/16 08:57:24;;;;;;;27.10;14.82;;;;;;;;;;5051442;27;84210;-43
2021/11/16 08:59:51;;;;;;;24.55;14.85;;;;;;;;;;5045405;27;85091;-43
2021/11/16 09:02:20;;;;;;;24.90;16.27;;;;;;;;;;5043071;27;83433;-43
2021/11/16 09:04:47;;;;;;;33.80;17.55;;;;;;;;;;5049271;27;83720;-44
2021/11/16 09:07:20;;;;;;;26.73;15.60;;;;;;;;;;5048167;27;85559;-43
2021/11/16 09:09:54;;;;;;;27.60;16.23;;;;;;;;;;5046274;27;85513;-44
2021/11/16 09:12:30;;;;;;;34.83;17.88;;;;;;;;;;5044132;27;83136;-44
2021/11/16 09:14:57;;;;;;;22.83;16.83;;;;;;;;;;5046161;27;83325;-43
2021/11/16 09:17:24;;;;;;;22.65;16.63;;;;;;;;;;5047358;27;83552;-43
2021/11/16 09:19:50;;;;;;;24.27;15.05;;;;;;;;;;5043101;27;85059;-43
2021/11/16 09:22:18;;;;;;;37.40;20.92;;;;;;;;;;4974524;27;84544;-43
2021/11/16 09:24:48;;;;;;;24.88;17.73;;;;;;;;;;5044963;27;83253;-42
2021/11/16 09:27:37;;;;;;;29.35;17.80;;;;;;;;;;5046443;27;85854;-42
2021/11/16 09:30:04;;;;;;;30.02;17.50;;;;;;;;;;5044603;27;83421;-41
2021/11/16 09:32:31;;;;;;;71.60;24.42;;;;;;;;;;5042964;27;83243;-43
2021/11/16 09:34:58;;;;;;;48.63;22.83;;;;;;;;;;5047505;27;85137;-42
2021/11/16 09:37:25;;;;;;;34.00;19.05;;;;;;;;;;5046541;27;83370;-45
2021/11/16 09:39:59;;;;;;;52.92;23.50;;;;;;;;;;5047807;27;85000;-41
2021/11/16 09:42:30;;;;;;;43.50;20.80;;;;;;;;;;5047787;27;84413;-43
2021/11/16 09:44:59;;;;;;;36.92;20.38;;;;;;;;;;5049837;27;83661;-43
2021/11/16 09:47:31;;;;;;;41.92;20.40;;;;;;;;;;5049667;27;85321;-43
2021/11/16 09:50:00;;;;;;;37.65;19.92;;;;;;;;;;5053652;27;84154;-45
2021/11/16 09:52:42;;;;;;;49.58;22.88;;;;;;;;;;5048241;27;83284;-46
2021/11/16 09:55:14;;;;;;;64.63;26.02;;;;;;;;;;5020408;27;85165;-43
2021/11/16 09:57:46;;;;;;;40.20;20.45;;;;;;;;;;5054853;27;83265;-42
2021/11/16 10:00:15;;;;;;;38.50;21.70;;;;;;;;;;5041045;27;84035;-44
2021/11/16 10:02:43;;;;;;;69.88;24.38;;;;;;;;;;5043780;27;84330;-43
2021/11/16 10:05:21;;;;;;;40.03;22.50;;;;;;;;;;5045492;27;84261;-42
2021/11/16 10:07:59;;;;;;;33.42;19.75;;;;;;;;;;5046103;27;84238;-42
2021/11/16 10:10:27;;;;;;;46.72;22.23;;;;;;;;;;5046698;27;83220;-43
2021/11/16 10:12:55;;;;;;;28.38;18.92;;;;;;;;;;5046379;27;83281;-51
2021/11/16 10:15:23;;;;;;;27.27;18.15;;;;;;;;;;5046044;27;84020;-46
2021/11/16 10:17:51;;;;;;;35.92;20.88;;;;;;;;;;5043056;27;84651;-44
2021/11/16 10:20:19;;;;;;;32.78;19.17;;;;;;;;;;5046887;27;83186;-44
2021/11/16 10:23:07;;;;;;;29.98;19.38;;;;;;;;;;5045584;27;84590;-43
2021/11/16 10:25:35;;;;;;;27.75;18.00;;;;;;;;;;5049438;27;83202;-45
2021/11/16 10:28:10;;;;;;;40.58;21.63;;;;;;;;;;5047937;27;85110;-44
2021/11/16 10:30:37;;;;;;;37.92;21.98;;;;;;;;;;5046194;27;84328;-43
2021/11/16 10:33:08;;;;;;;53.45;23.33;;;;;;;;;;5050578;27;83828;-46
2021/11/16 10:35:38;;;;;;;76.00;23.75;;;;;;;;;;5047925;27;84890;-60
2021/11/16 10:38:08;;;;;;;32.60;19.98;;;;;;;;;;5040427;27;83846;-43
2021/11/16 10:40:35;;;;;;;29.52;19.85;;;;;;;;;;5043417;27;83299;-44
2021/11/16 10:43:03;;;;;;;29.42;19.95;;;;;;;;;;5055716;27;85104;-43
2021/11/16 10:45:34;;;;;;;27.55;17.88;;;;;;;;;;5046047;27;83301;-45
2021/11/16 10:48:03;;;;;;;45.08;21.52;;;;;;;;;;5044598;27;84035;-43
2021/11/16 10:50:31;;;;;;;30.13;21.27;;;;;;;;;;5047412;27;84437;-45
2021/11/16 10:52:58;;;;;;;31.42;19.58;;;;;;;;;;5049019;27;83886;-45
2021/11/16 10:55:35;;;;;;;48.72;23.65;;;;;;;;;;5046781;27;85104;-45
2021/11/16 10:58:05;;;;;;;87.97;27.48;;;;;;;;;;5045458;27;84269;-43
2021/11/16 11:00:53;;;;;;;91.82;30.63;;;;;;;;;;5043312;27;83483;-42
2021/11/16 11:03:21;;;;;;;59.45;24.25;;;;;;;;;;5043158;27;85166;-43
2021/11/16 11:05:48;;;;;;;75.90;32.35;;;;;;;;;;5048127;27;84470;-43
2021/11/16 11:08:30;;;;;;;79.07;28.45;;;;;;;;;;5042269;27;85169;-43
2021/11/16 11:10:57;;;;;;;47.80;25.48;;;;;;;;;;5044511;27;84505;-43
2021/11/16 11:13:28;;;;;;;31.25;18.63;;;;;;;;;;5040136;27;83528;-43
2021/11/16 11:15:55;;;;;;;32.47;21.65;;;;;;;;;;5045258;27;85049;-43
2021/11/16 11:18:31;;;;;;;29.02;21.08;;;;;;;;;;5042297;27;84346;-43
2021/11/16 11:20:59;;;;;;;34.08;19.63;;;;;;;;;;5043477;27;85002;-44
2021/11/16 11:23:29;;;;;;;28.15;21.30;;;;;;;;;;5040398;27;85191;-44
2021/11/16 11:26:17;;;;;;;29.83;19.90;;;;;;;;;;5047644;27;84179;-44
2021/11/16 11:28:54;;;;;;;28.98;21.95;;;;;;;;;;5050790;27;85331;-42
2021/11/16 11:31:28;;;;;;;26.98;19.67;;;;;;;;;;5042839;27;84325;-44
2021/11/16 11:33:55;;;;;;;25.35;19.73;;;;;;;;;;5047651;27;83859;-42
2021/11/16 11:36:25;;;;;;;30.67;20.85;;;;;;;;;;5046372;27;85571;-43
2021/11/16 11:38:52;;;;;;;32.72;19.63;;;;;;;;;;5045214;27;84541;-43
2021/11/16 11:41:20;;;;;;;32.17;20.48;;;;;;;;;;5042990;27;83435;-43
2021/11/16 11:44:06;;;;;;;30.98;21.67;;;;;;;;;;5038276;27;84929;-44
2021/11/16 11:46:43;;;;;;;31.48;21.38;;;;;;;;;;5048480;27;84488;-43
2021/11/16 11:49:10;;;;;;;33.30;21.10;;;;;;;;;;5045396;27;83952;-42
2021/11/16 11:51:36;;;;;;;33.55;22.45;;;;;;;;;;5051685;27;84340;-42
2021/11/16 11:54:03;;;;;;;31.63;20.35;;;;;;;;;;5047053;27;83955;-45
2021/11/16 11:56:30;;;;;;;27.23;20.95;;;;;;;;;;5043657;27;84136;-43
2021/11/16 11:58:58;;;;;;;34.10;21.13;;;;;;;;;;5046891;27;84264;-45
2021/11/16 12:01:28;;;;;;;35.30;22.02;;;;;;;;;;5046703;27;83682;-45
2021/11/16 12:03:56;;;;;;;26.92;20.02;;;;;;;;;;5046229;27;85321;-43
2021/11/16 12:06:23;;;;;;;30.73;22.00;;;;;;;;;;5043899;27;85207;-44
2021/11/16 12:08:50;;;;;;;31.73;21.05;;;;;;;;;;5045530;27;83925;-43
2021/11/16 12:11:20;;;;;;;31.60;22.17;;;;;;;;;;5052608;27;85431;-44
2021/11/16 12:13:47;;;;;;;34.15;22.15;;;;;;;;;;5037824;27;84333;-43
2021/11/16 12:16:20;;;;;;;33.78;22.55;;;;;;;;;;5040138;27;83953;-42
2021/11/16 12:18:48;;;;;;;31.48;21.48;;;;;;;;;;5039191;27;84125;-43
2021/11/16 12:21:29;;;;;;;36.55;23.60;;;;;;;;;;5036792;27;84149;-44
2021/11/16 12:23:59;;;;;;;31.58;22.98;;;;;;;;;;5038847;28;84996;-44
2021/11/16 12:26:27;;;;;;;30.35;21.48;;;;;;;;;;5040935;28;84225;-43
2021/11/16 12:29:10;;;;;;;35.45;21.83;;;;;;;;;;5040434;28;83691;-44
2021/11/16 12:31:36;;;;;;;30.52;20.73;;;;;;;;;;5034913;27;85194;-42
2021/11/16 12:34:03;;;;;;;32.45;22.08;;;;;;;;;;5041388;28;83949;-59
2021/11/16 12:36:31;;;;;;;31.25;22.63;;;;;;;;;;5036318;27;85224;-59
2021/11/16 12:39:13;;;;;;;34.58;23.58;;;;;;;;;;5039784;28;83180;-59
2021/11/16 12:41:41;;;;;;;29.95;20.58;;;;;;;;;;5032684;28;83526;-59
2021/11/16 12:44:17;;;;;;;33.72;23.35;;;;;;;;;;5044434;27;85281;-61
2021/11/16 12:46:45;;;;;;;36.80;24.77;;;;;;;;;;5042204;27;84205;-61
2021/11/16 12:49:33;;;;;;;33.15;22.98;;;;;;;;;;5043257;27;83861;-60
2021/11/16 12:52:01;;;;;;;33.83;23.70;;;;;;;;;;5038143;27;84988;-51
2021/11/16 12:54:29;;;;;;;38.30;25.77;;;;;;;;;;5038531;28;84647;-51
2021/11/16 12:56:56;;;;;;;32.95;24.40;;;;;;;;;;5047112;27;83351;-51
2021/11/16 12:59:24;;;;;;;33.28;23.30;;;;;;;;;;5039479;27;84327;-57
2021/11/16 13:01:54;;;;;;;40.25;22.55;;;;;;;;;;5003424;28;83593;-47
2021/11/16 13:04:40;;;;;;;31.63;23.23;;;;;;;;;;5002888;28;85520;-47
2021/11/16 13:07:17;;;;;;;30.63;22.38;;;;;;;;;;5003765;28;84311;-47
2021/11/16 13:09:51;;;;;;;37.65;24.23;;;;;;;;;;5003330;28;83718;-48
2021/11/16 13:12:33;;;;;;;37.55;24.67;;;;;;;;;;5003755;28;85191;-47
2021/11/16 13:15:24;;;;;;;33.42;23.05;;;;;;;;;;5002937;28;84429;-47
2021/11/16 13:17:59;;;;;;;31.88;23.38;;;;;;;;;;5002498;28;83606;-48
2021/11/16 13:20:26;;;;;;;42.40;24.65;;;;;;;;;;5005536;28;83943;-46
2021/11/16 13:23:01;;;;;;;125.75;33.83;;;;;;;;;;5003156;28;83189;-47
2021/11/16 13:25:36;;;;;;;72.82;29.88;;;;;;;;;;5002765;28;85203;-47
2021/11/16 13:28:04;;;;;;;43.50;26.63;;;;;;;;;;5003531;28;84350;-47
2021/11/16 13:30:31;;;;;;;31.40;23.45;;;;;;;;;;5002434;28;84634;-45
2021/11/16 13:32:58;;;;;;;91.47;31.63;;;;;;;;;;5003045;28;85219;-45
2021/11/16 13:35:25;;;;;;;70.10;30.13;;;;;;;;;;5003119;28;84522;-45
2021/11/16 13:37:53;;;;;;;50.58;25.65;;;;;;;;;;5001341;28;83173;-45
2021/11/16 13:40:22;;;;;;;45.45;24.95;;;;;;;;;;5004339;28;85306;-47
2021/11/16 13:42:51;;;;;;;41.17;22.40;;;;;;;;;;5000679;28;83677;-46
2021/11/16 13:45:19;;;;;;;38.00;23.27;;;;;;;;;;5001714;28;83990;-46
2021/11/16 13:47:53;;;;;;;37.97;24.98;;;;;;;;;;5001563;28;83291;-45
2021/11/16 13:50:26;;;;;;;33.40;23.17;;;;;;;;;;5000719;28;83521;-46
2021/11/16 13:53:06;;;;;;;38.47;26.27;;;;;;;;;;5002461;28;84980;-46
2021/11/16 13:55:40;;;;;;;68.68;32.45;;;;;;;;;;5002622;28;84167;-45
2021/11/16 13:58:10;;;;;;;86.78;32.53;;;;;;;;;;5002810;28;83504;-46
2021/11/16 14:00:41;;;;;;;44.00;24.70;;;;;;;;;;5021060;28;84995;-45
2021/11/16 14:03:12;;;;;;;42.45;25.85;;;;;;;;;;5045084;28;83834;-48
2021/11/16 14:05:42;;;;;;;184.85;54.45;;;;;;;;;;5042180;27;84079;-45
2021/11/16 14:08:12;;;;;;;255.90;71.90;;;;;;;;;;5042338;27;84495;-47
2021/11/16 14:10:40;;;;;;;81.93;33.40;;;;;;;;;;5040640;27;83655;-51
2021/11/16 14:13:14;;;;;;;51.90;28.55;;;;;;;;;;5043448;27;84049;-46
2021/11/16 14:15:42;;;;;;;123.90;39.67;;;;;;;;;;5041816;27;84447;-46
2021/11/16 14:18:10;;;;;;;113.55;37.15;;;;;;;;;;5041307;28;84011;-47
